createdAt,value
2022-12-20T00:01:09.070Z,6.03
2022-12-20T00:03:36.324Z,10.82
2022-12-20T00:06:03.752Z,6.47
2022-12-20T00:08:30.904Z,6.88
2022-12-20T00:11:01.272Z,6.50
2022-12-20T00:13:28.272Z,6.03
2022-12-20T00:16:09.682Z,5.53
2022-12-20T00:18:37.690Z,7.50
2022-12-20T00:21:06.009Z,7.50
2022-12-20T00:23:33.447Z,6.63
2022-12-20T00:26:05.809Z,10.80
2022-12-20T00:28:33.818Z,9.43
2022-12-20T00:31:01.436Z,8.13
2022-12-20T00:33:28.828Z,4.57
2022-12-20T00:35:57.180Z,6.93
2022-12-20T00:38:25.464Z,6.47
2022-12-20T00:41:01.574Z,6.20
2022-12-20T00:43:29.062Z,4.63
2022-12-20T00:45:56.330Z,4.90
2022-12-20T00:48:23.567Z,4.65
2022-12-20T00:50:50.756Z,9.05
2022-12-20T00:53:22.686Z,6.43
2022-12-20T00:55:53.048Z,6.43
2022-12-20T00:58:20.098Z,3.90
2022-12-20T01:00:53.894Z,7.10
2022-12-20T01:03:23.299Z,4.45
2022-12-20T01:05:59.358Z,5.72
2022-12-20T01:08:28.156Z,5.57
2022-12-20T01:11:13.581Z,4.18
2022-12-20T01:13:43.835Z,4.82
2022-12-20T01:16:24.201Z,6.28
2022-12-20T01:18:53.172Z,5.88
2022-12-20T01:21:22.652Z,5.38
2022-12-20T01:23:49.969Z,6.00
2022-12-20T01:26:20.306Z,3.03
2022-12-20T01:28:48.743Z,6.60
2022-12-20T01:31:18.803Z,5.68
2022-12-20T01:33:47.153Z,4.85
2022-12-20T01:36:27.349Z,5.22
2022-12-20T01:39:02.153Z,5.47
2022-12-20T01:41:30.955Z,4.65
2022-12-20T01:43:59.018Z,4.55
2022-12-20T01:46:28.320Z,5.93
2022-12-20T01:49:13.358Z,6.70
2022-12-20T01:51:44.701Z,3.40
2022-12-20T01:54:15.147Z,5.60
2022-12-20T01:56:46.820Z,6.03
2022-12-20T01:59:14.134Z,4.55
2022-12-20T02:01:43.311Z,4.90
2022-12-20T02:04:10.653Z,4.22
2022-12-20T02:06:37.483Z,7.10
2022-12-20T02:09:05.529Z,4.82
2022-12-20T02:11:32.349Z,4.95
2022-12-20T02:14:08.325Z,6.50
2022-12-20T02:16:43.906Z,5.22
2022-12-20T02:19:37.327Z,3.83
2022-12-20T02:22:30.205Z,4.07
2022-12-20T02:25:05.037Z,6.17
2022-12-20T02:28:00.182Z,4.13
2022-12-20T02:30:39.022Z,6.75
2022-12-20T02:33:10.454Z,4.65
2022-12-20T02:35:39.807Z,3.75
2022-12-20T02:38:28.378Z,6.68
2022-12-20T02:41:18.284Z,4.07
2022-12-20T02:44:07.816Z,5.20
2022-12-20T02:46:36.226Z,3.08
2022-12-20T02:49:09.059Z,7.40
2022-12-20T02:51:36.348Z,5.13
2022-12-20T02:54:03.667Z,7.47
2022-12-20T02:56:30.605Z,5.70
2022-12-20T02:59:01.712Z,5.25
2022-12-20T03:01:33.743Z,4.22
2022-12-20T03:04:01.357Z,7.60
2022-12-20T03:06:29.650Z,4.97
2022-12-20T03:08:56.620Z,6.18
2022-12-20T03:11:23.501Z,7.80
2022-12-20T03:13:50.635Z,3.20
2022-12-20T03:16:17.536Z,7.25
2022-12-20T03:18:46.046Z,11.43
2022-12-20T03:21:13.092Z,6.13
2022-12-20T03:23:39.961Z,4.13
2022-12-20T03:26:06.805Z,6.22
2022-12-20T03:28:33.637Z,6.28
2022-12-20T03:31:00.464Z,7.03
2022-12-20T03:33:27.327Z,5.22
2022-12-20T03:35:54.156Z,5.60
2022-12-20T03:38:20.981Z,4.47
2022-12-20T03:40:47.757Z,5.97
2022-12-20T03:43:14.609Z,4.72
2022-12-20T03:45:41.373Z,5.10
2022-12-20T03:48:08.196Z,6.38
2022-12-20T03:50:36.703Z,6.25
2022-12-20T03:53:03.629Z,8.48
2022-12-20T03:55:30.577Z,6.57
2022-12-20T03:57:57.407Z,6.68
2022-12-20T04:00:24.609Z,9.77
2022-12-20T04:02:52.500Z,6.18
2022-12-20T04:05:19.538Z,5.88
2022-12-20T04:07:46.407Z,5.25
2022-12-20T04:10:13.586Z,5.70
2022-12-20T04:12:40.436Z,7.22
2022-12-20T04:15:08.173Z,8.05
2022-12-20T04:17:35.078Z,4.35
2022-12-20T04:20:19.056Z,9.25
2022-12-20T04:22:50.225Z,5.88
2022-12-20T04:25:20.215Z,6.60
2022-12-20T04:27:47.209Z,6.65
2022-12-20T04:30:14.367Z,6.60
2022-12-20T04:32:41.136Z,5.45
2022-12-20T04:35:08.558Z,4.78
2022-12-20T04:37:35.589Z,7.80
2022-12-20T04:40:02.617Z,7.55
2022-12-20T04:42:29.420Z,6.15
2022-12-20T04:44:56.250Z,6.85
2022-12-20T04:47:23.089Z,6.25
2022-12-20T04:49:49.880Z,7.90
2022-12-20T04:52:35.260Z,9.10
2022-12-20T04:55:02.142Z,7.10
2022-12-20T04:57:28.970Z,5.43
2022-12-20T04:59:55.776Z,4.78
2022-12-20T05:02:22.741Z,5.93
2022-12-20T05:04:49.629Z,5.03
2022-12-20T05:07:16.525Z,12.85
2022-12-20T05:09:43.317Z,5.90
2022-12-20T05:12:10.147Z,7.75
2022-12-20T05:14:36.912Z,8.50
2022-12-20T05:17:03.814Z,5.07
2022-12-20T05:19:30.644Z,5.30
2022-12-20T05:22:15.728Z,5.80
2022-12-20T05:25:01.029Z,6.70
2022-12-20T05:27:27.926Z,6.30
2022-12-20T05:29:54.783Z,5.95
2022-12-20T05:32:21.761Z,6.60
2022-12-20T05:34:48.552Z,5.95
2022-12-20T05:37:15.376Z,5.80
2022-12-20T05:39:42.294Z,5.32
2022-12-20T05:42:10.367Z,7.47
2022-12-20T05:44:37.178Z,8.88
2022-12-20T05:47:04.075Z,4.85
2022-12-20T05:49:30.971Z,6.63
2022-12-20T05:51:57.792Z,5.88
2022-12-20T05:54:25.508Z,4.20
2022-12-20T05:56:52.516Z,6.30
2022-12-20T05:59:19.593Z,5.00
2022-12-20T06:01:46.518Z,5.97
2022-12-20T06:04:13.464Z,4.45
2022-12-20T06:06:40.334Z,7.05
2022-12-20T06:09:07.426Z,4.18
2022-12-20T06:11:34.213Z,5.35
2022-12-20T06:14:01.034Z,5.45
2022-12-20T06:16:27.963Z,6.82
2022-12-20T06:18:55.014Z,7.80
2022-12-20T06:21:21.887Z,6.25
2022-12-20T06:23:48.763Z,4.15
2022-12-20T06:26:15.634Z,4.07
2022-12-20T06:28:46.034Z,8.07
2022-12-20T06:31:12.918Z,4.35
2022-12-20T06:33:39.886Z,4.63
2022-12-20T06:36:06.992Z,9.15
2022-12-20T06:38:33.865Z,7.68
2022-12-20T06:41:00.827Z,6.20
2022-12-20T06:43:27.636Z,4.53
2022-12-20T06:45:54.696Z,5.10
2022-12-20T06:48:21.574Z,6.20
2022-12-20T06:50:55.643Z,7.82
2022-12-20T06:53:23.082Z,7.72
2022-12-20T06:55:50.792Z,9.10
2022-12-20T06:58:18.593Z,7.15
2022-12-20T07:00:45.455Z,4.28
2022-12-20T07:03:12.830Z,6.78
2022-12-20T07:05:40.667Z,8.15
2022-12-20T07:08:08.464Z,6.15
2022-12-20T07:10:36.761Z,7.30
2022-12-20T07:13:03.835Z,6.88
2022-12-20T07:15:31.205Z,5.97
2022-12-20T07:17:59.571Z,6.45
2022-12-20T07:20:26.457Z,4.57
2022-12-20T07:22:53.332Z,9.45
2022-12-20T07:25:20.307Z,4.93
2022-12-20T07:27:50.206Z,5.35
2022-12-20T07:30:19.271Z,6.25
2022-12-20T07:32:46.720Z,7.40
2022-12-20T07:35:14.497Z,7.90
2022-12-20T07:37:41.469Z,7.40
2022-12-20T07:40:09.141Z,8.23
2022-12-20T07:42:38.995Z,6.25
2022-12-20T07:45:08.928Z,5.80
2022-12-20T07:47:35.951Z,7.00
2022-12-20T07:50:03.499Z,6.75
2022-12-20T07:52:33.608Z,7.18
2022-12-20T07:55:03.058Z,8.65
2022-12-20T07:57:45.226Z,12.98
2022-12-20T08:00:13.412Z,10.10
2022-12-20T08:03:03.693Z,10.30
2022-12-20T08:05:31.068Z,8.40
2022-12-20T08:07:59.985Z,8.40
2022-12-20T08:10:31.107Z,11.02
2022-12-20T08:12:59.098Z,7.72
2022-12-20T08:15:27.953Z,5.70
2022-12-20T08:17:54.735Z,5.30
2022-12-20T08:20:21.782Z,5.53
2022-12-20T08:22:48.774Z,12.77
2022-12-20T08:25:15.948Z,6.57
2022-12-20T08:27:42.797Z,6.35
2022-12-20T08:30:10.842Z,6.10
2022-12-20T08:32:38.275Z,3.95
2022-12-20T08:35:05.872Z,4.18
2022-12-20T08:37:33.037Z,8.15
2022-12-20T08:40:00.908Z,10.38
2022-12-20T08:42:28.314Z,4.55
2022-12-20T08:44:55.968Z,6.03
2022-12-20T08:47:22.895Z,8.45
2022-12-20T08:49:49.663Z,6.50
2022-12-20T08:52:16.470Z,5.47
2022-12-20T08:54:43.490Z,6.82
2022-12-20T08:57:10.383Z,4.68
2022-12-20T08:59:37.283Z,5.22
2022-12-20T09:02:04.437Z,5.18
2022-12-20T09:04:31.416Z,7.80
2022-12-20T09:06:58.281Z,6.50
2022-12-20T09:09:25.113Z,3.63
2022-12-20T09:11:51.949Z,6.25
2022-12-20T09:14:18.915Z,4.35
2022-12-20T09:16:48.408Z,7.70
2022-12-20T09:19:15.406Z,4.85
2022-12-20T09:21:42.331Z,6.50
2022-12-20T09:24:09.907Z,5.47
2022-12-20T09:26:36.999Z,7.70
2022-12-20T09:29:05.324Z,5.82
2022-12-20T09:31:32.273Z,4.28
2022-12-20T09:34:01.149Z,7.05
2022-12-20T09:36:29.469Z,5.15
2022-12-20T09:38:56.773Z,6.63
2022-12-20T09:41:38.364Z,7.75
2022-12-20T09:44:15.744Z,7.32
2022-12-20T09:46:44.325Z,7.50
2022-12-20T09:49:17.585Z,7.22
2022-12-20T09:54:31.496Z,5.43
2022-12-20T09:57:32.213Z,5.15
2022-12-20T09:59:59.010Z,6.05
2022-12-20T10:02:58.855Z,9.10
2022-12-20T10:05:40.556Z,8.05
2022-12-20T10:08:24.321Z,9.70
2022-12-20T10:11:05.131Z,6.57
2022-12-20T10:13:56.605Z,6.65
2022-12-20T10:16:50.773Z,7.43
2022-12-20T10:19:40.336Z,11.07
2022-12-20T10:22:18.906Z,7.93
2022-12-20T10:24:52.667Z,11.63
2022-12-20T10:27:20.858Z,12.68
2022-12-20T10:29:50.603Z,5.13
2022-12-20T10:32:23.640Z,9.63
2022-12-20T10:35:20.155Z,8.73
2022-12-20T10:38:08.720Z,6.35
2022-12-20T10:41:19.994Z,7.18
2022-12-20T10:43:47.901Z,7.47
2022-12-20T10:46:16.911Z,8.15
2022-12-20T10:48:46.003Z,11.60
2022-12-20T10:51:17.290Z,8.05
2022-12-20T10:54:01.300Z,10.88
2022-12-20T10:56:36.590Z,10.63
2022-12-20T10:59:15.866Z,8.60
2022-12-20T11:01:45.875Z,10.52
2022-12-20T11:04:29.928Z,9.95
2022-12-20T11:06:58.120Z,8.98
2022-12-20T11:09:38.216Z,8.38
2022-12-20T11:12:14.412Z,6.28
2022-12-20T11:14:43.473Z,11.00
2022-12-20T11:17:36.023Z,11.38
2022-12-20T11:20:24.457Z,6.95
2022-12-20T11:23:06.443Z,7.50
2022-12-20T11:26:04.851Z,9.90
2022-12-20T11:28:47.336Z,7.85
2022-12-20T11:31:25.605Z,6.90
2022-12-20T11:34:10.646Z,12.02
2022-12-20T11:37:14.937Z,13.73
2022-12-20T11:39:47.790Z,6.30
2022-12-20T11:42:37.978Z,7.38
2022-12-20T11:45:20.018Z,8.82
2022-12-20T11:48:18.299Z,9.02
2022-12-20T11:50:58.725Z,6.75
2022-12-20T11:53:35.890Z,7.38
2022-12-20T11:56:11.289Z,7.97
2022-12-20T11:58:46.403Z,12.13
2022-12-20T12:01:27.535Z,7.10
2022-12-20T12:04:25.718Z,8.50
2022-12-20T12:06:59.594Z,6.60
2022-12-20T12:09:51.439Z,7.93
2022-12-20T12:12:24.060Z,9.15
2022-12-20T12:14:56.818Z,5.53
2022-12-20T12:17:35.368Z,10.73
2022-12-20T12:20:22.374Z,10.10
2022-12-20T12:22:53.521Z,10.00
2022-12-20T12:25:20.480Z,6.80
2022-12-20T12:27:47.374Z,10.23
2022-12-20T12:30:16.050Z,7.53
2022-12-20T12:32:54.477Z,10.77
2022-12-20T12:35:41.121Z,8.43
2022-12-20T12:38:23.117Z,6.18
2022-12-20T12:41:31.749Z,8.52
2022-12-20T12:44:32.732Z,7.82
2022-12-20T12:47:05.575Z,8.85
2022-12-20T12:49:33.697Z,7.40
2022-12-20T12:52:02.828Z,11.85
2022-12-20T12:54:35.077Z,8.88
2022-12-20T12:57:23.462Z,11.17
2022-12-20T12:59:52.160Z,12.35
2022-12-20T13:02:21.045Z,9.00
2022-12-20T13:05:00.310Z,11.90
2022-12-20T13:07:36.582Z,7.18
2022-12-20T13:10:25.153Z,13.90
2022-12-20T13:12:52.658Z,9.85
2022-12-20T13:15:19.686Z,10.23
2022-12-20T13:17:46.745Z,10.32
2022-12-20T13:20:34.771Z,9.95
2022-12-20T13:23:11.575Z,9.48
2022-12-20T13:25:54.022Z,11.05
2022-12-20T13:28:23.644Z,15.60
2022-12-20T13:31:02.665Z,11.63
2022-12-20T13:33:49.570Z,10.88
2022-12-20T13:36:16.533Z,12.93
2022-12-20T13:38:46.058Z,10.13
2022-12-20T13:41:37.234Z,9.75
2022-12-20T13:44:16.213Z,10.90
2022-12-20T13:46:54.262Z,9.43
2022-12-20T13:49:26.882Z,8.55
2022-12-20T13:52:20.931Z,12.70
2022-12-20T13:54:52.770Z,17.00
2022-12-20T13:57:46.125Z,11.73
2022-12-20T14:00:22.537Z,12.13
2022-12-20T14:02:49.784Z,9.93
2022-12-20T14:05:31.110Z,19.02
2022-12-20T14:08:14.004Z,11.48
2022-12-20T14:10:40.855Z,14.10
2022-12-20T14:13:26.618Z,11.23
2022-12-20T14:15:54.399Z,9.15
2022-12-20T14:18:25.871Z,11.90
2022-12-20T14:21:01.818Z,11.13
2022-12-20T14:23:50.810Z,10.43
2022-12-20T14:26:25.242Z,12.40
2022-12-20T14:28:54.289Z,14.10
2022-12-20T14:31:38.875Z,13.93
2022-12-20T14:34:15.031Z,12.13
2022-12-20T14:36:47.350Z,12.05
2022-12-20T14:39:23.359Z,18.47
2022-12-20T14:42:13.983Z,14.07
2022-12-20T14:44:40.977Z,13.68
2022-12-20T14:47:26.726Z,12.65
2022-12-20T14:50:01.917Z,9.38
2022-12-20T14:52:37.889Z,14.32
2022-12-20T14:55:22.495Z,14.73
2022-12-20T14:57:54.711Z,14.98
2022-12-20T15:00:32.514Z,15.98
2022-12-20T15:03:18.072Z,10.95
2022-12-20T15:05:50.645Z,9.18
2022-12-20T15:08:27.971Z,13.82
2022-12-20T15:11:10.405Z,11.45
2022-12-20T15:13:37.474Z,12.80
2022-12-20T15:16:22.100Z,12.80
2022-12-20T15:18:50.636Z,11.20
2022-12-20T15:21:42.821Z,12.40
2022-12-20T15:24:14.747Z,10.10
2022-12-20T15:26:42.302Z,13.40
2022-12-20T15:29:20.707Z,9.93
2022-12-20T15:31:48.392Z,12.15
2022-12-20T15:34:32.363Z,11.82
2022-12-20T15:37:00.304Z,16.17
2022-12-20T15:39:27.919Z,12.95
2022-12-20T15:41:55.880Z,16.40
2022-12-20T15:44:25.143Z,13.48
2022-12-20T15:46:53.101Z,14.77
2022-12-20T15:49:30.270Z,13.13
2022-12-20T15:51:57.705Z,16.88
2022-12-20T15:54:33.713Z,11.20
2022-12-20T15:57:03.306Z,14.23
2022-12-20T16:02:24.757Z,13.38
2022-12-20T16:04:52.987Z,15.15
2022-12-20T16:07:20.324Z,15.38
2022-12-20T16:09:47.327Z,11.80
2022-12-20T16:12:23.188Z,12.73
2022-12-20T16:14:50.178Z,13.15
2022-12-20T16:17:17.629Z,13.18
2022-12-20T16:19:44.781Z,12.27
2022-12-20T16:22:19.474Z,12.88
2022-12-20T16:24:46.769Z,14.10
2022-12-20T16:27:38.656Z,14.30
2022-12-20T16:30:06.742Z,14.45
2022-12-20T16:32:33.684Z,14.80
2022-12-20T16:35:00.559Z,14.10
2022-12-20T16:37:27.536Z,13.95
2022-12-20T16:39:55.259Z,16.33
2022-12-20T16:42:22.298Z,15.13
2022-12-20T16:44:53.766Z,14.82
2022-12-20T16:47:21.219Z,14.30
2022-12-20T16:49:52.914Z,14.75
2022-12-20T16:52:22.455Z,14.80
2022-12-20T16:54:49.992Z,14.88
2022-12-20T16:57:16.855Z,14.75
2022-12-20T16:59:43.885Z,16.48
2022-12-20T17:02:31.284Z,19.33
2022-12-20T17:04:59.043Z,18.77
2022-12-20T17:07:26.317Z,19.55
2022-12-20T17:09:53.994Z,19.92
2022-12-20T17:12:22.825Z,22.02
2022-12-20T17:14:49.873Z,24.52
2022-12-20T17:17:17.501Z,20.73
2022-12-20T17:19:44.706Z,22.88
2022-12-20T17:25:00.650Z,26.02
2022-12-20T17:27:27.609Z,22.70
2022-12-20T17:29:54.768Z,21.33
2022-12-20T17:32:25.611Z,22.25
2022-12-20T17:34:53.312Z,22.40
2022-12-20T17:37:21.607Z,24.88
2022-12-20T17:39:49.064Z,25.58
2022-12-20T17:42:18.307Z,24.90
2022-12-20T17:44:46.542Z,21.88
2022-12-20T17:47:13.640Z,24.23
2022-12-20T17:49:40.503Z,22.50
2022-12-20T17:52:13.610Z,24.13
2022-12-20T17:57:16.531Z,24.05
2022-12-20T17:59:43.820Z,22.23
2022-12-20T18:02:24.121Z,21.77
2022-12-20T18:04:51.890Z,21.52
2022-12-20T18:07:19.144Z,23.65
2022-12-20T18:09:49.507Z,19.17
2022-12-20T18:12:17.842Z,21.67
2022-12-20T18:14:45.220Z,21.23
2022-12-20T18:17:13.915Z,20.75
2022-12-20T18:19:41.025Z,20.20
2022-12-20T18:22:07.927Z,19.60
2022-12-20T18:24:35.042Z,21.45
2022-12-20T18:27:01.879Z,17.80
2022-12-20T18:29:29.738Z,18.30
2022-12-20T18:31:56.944Z,19.83
2022-12-20T18:34:26.649Z,20.25
2022-12-20T18:36:53.511Z,22.70
2022-12-20T18:39:20.363Z,19.27
2022-12-20T18:41:48.406Z,22.73
2022-12-20T18:44:15.433Z,25.48
2022-12-20T18:46:42.220Z,21.50
2022-12-20T18:49:09.555Z,19.70
2022-12-20T18:51:37.026Z,25.30
2022-12-20T18:54:05.930Z,21.42
2022-12-20T18:56:35.416Z,23.38
2022-12-20T18:59:10.236Z,22.33
2022-12-20T19:01:38.704Z,30.25
2022-12-20T19:04:07.333Z,24.75
2022-12-20T19:06:35.195Z,22.38
2022-12-20T19:09:03.874Z,25.02
2022-12-20T19:11:30.859Z,24.60
2022-12-20T19:13:57.813Z,26.45
2022-12-20T19:16:32.190Z,25.77
2022-12-20T19:19:00.135Z,24.30
2022-12-20T19:21:29.711Z,29.67
2022-12-20T19:23:59.414Z,28.48
2022-12-20T19:26:27.928Z,25.27
2022-12-20T19:28:57.802Z,33.85
2022-12-20T19:31:27.337Z,36.42
2022-12-20T19:33:56.985Z,27.45
2022-12-20T19:36:26.871Z,26.85
2022-12-20T19:38:56.496Z,32.45
2022-12-20T19:41:25.608Z,38.80
2022-12-20T19:43:52.896Z,36.53
2022-12-20T19:46:27.930Z,32.10
2022-12-20T19:48:56.805Z,32.28
2022-12-20T19:51:24.891Z,29.83
2022-12-20T19:53:53.718Z,34.15
2022-12-20T19:56:26.618Z,32.58
2022-12-20T19:58:55.206Z,31.02
2022-12-20T20:01:25.829Z,33.10
2022-12-20T20:03:54.427Z,38.63
2022-12-20T20:06:22.377Z,32.00
2022-12-20T20:08:50.896Z,32.03
2022-12-20T20:11:19.168Z,39.83
2022-12-20T20:13:46.781Z,31.10
2022-12-20T20:16:18.476Z,28.35
2022-12-20T20:18:47.256Z,30.10
2022-12-20T20:21:17.953Z,32.83
2022-12-20T20:23:45.102Z,33.25
2022-12-20T20:26:20.574Z,40.88
2022-12-20T20:28:47.596Z,30.67
2022-12-20T20:31:16.345Z,34.25
2022-12-20T20:33:44.364Z,33.50
2022-12-20T20:36:14.843Z,35.60
2022-12-20T20:38:41.793Z,37.95
2022-12-20T20:41:09.150Z,40.33
2022-12-20T20:43:40.249Z,42.17
2022-12-20T20:46:09.119Z,35.83
2022-12-20T20:48:36.509Z,40.30
2022-12-20T20:51:04.437Z,37.33
2022-12-20T20:53:34.203Z,52.53
2022-12-20T20:56:06.220Z,40.13
2022-12-20T20:58:34.659Z,43.20
2022-12-20T21:01:03.037Z,40.08
2022-12-20T21:03:30.975Z,40.70
2022-12-20T21:08:45.439Z,44.83
2022-12-20T21:11:12.952Z,45.63
2022-12-20T21:13:40.055Z,39.67
2022-12-20T21:16:13.349Z,38.17
2022-12-20T21:18:40.341Z,39.65
2022-12-20T21:21:12.541Z,59.17
2022-12-20T21:23:45.734Z,49.95
2022-12-20T21:28:40.665Z,55.75
2022-12-20T21:31:11.716Z,45.47
2022-12-20T21:33:39.097Z,54.10
2022-12-20T21:36:08.454Z,49.47
2022-12-20T21:38:35.422Z,88.47
2022-12-20T21:41:12.338Z,67.55
2022-12-20T21:43:39.503Z,47.63
2022-12-20T21:46:11.214Z,46.03
2022-12-20T21:48:43.121Z,79.57
2022-12-20T21:51:15.971Z,73.28
2022-12-20T21:53:48.438Z,49.83
2022-12-20T21:56:16.011Z,95.60
2022-12-20T21:58:43.236Z,86.60
2022-12-20T22:01:14.016Z,77.07
2022-12-20T22:03:41.428Z,93.53
2022-12-20T22:06:08.386Z,115.50
2022-12-20T22:08:35.269Z,146.88
2022-12-20T22:11:08.199Z,106.88
2022-12-20T22:13:41.141Z,61.88
2022-12-20T22:16:10.882Z,81.38
2022-12-20T22:18:38.497Z,97.60
2022-12-20T22:21:06.804Z,90.75
2022-12-20T22:23:33.883Z,92.85
2022-12-20T22:26:05.653Z,78.75
2022-12-20T22:28:32.690Z,74.22
2022-12-20T22:30:59.636Z,79.28
2022-12-20T22:33:26.493Z,103.80
2022-12-20T22:35:53.530Z,97.43
2022-12-20T22:38:20.400Z,153.23
2022-12-20T22:40:47.225Z,82.22
2022-12-20T22:43:14.238Z,127.50
2022-12-20T22:45:41.192Z,99.55
2022-12-20T22:48:07.999Z,82.85
2022-12-20T22:50:34.832Z,97.50
2022-12-20T22:53:01.801Z,108.20
2022-12-20T22:55:28.565Z,147.90
2022-12-20T22:57:55.402Z,123.30
2022-12-20T23:00:22.242Z,168.82
2022-12-20T23:02:49.447Z,125.03
2022-12-20T23:05:16.465Z,120.13
2022-12-20T23:07:43.313Z,119.82
2022-12-20T23:10:30.500Z,100.57
2022-12-20T23:13:15.972Z,107.05
2022-12-20T23:15:42.983Z,111.53
2022-12-20T23:18:09.834Z,260.85
2022-12-20T23:20:55.182Z,108.97
2022-12-20T23:23:22.043Z,109.40
2022-12-20T23:25:48.881Z,167.23
2022-12-20T23:28:16.147Z,174.15
2022-12-20T23:30:42.969Z,147.43
2022-12-20T23:33:09.749Z,269.63
2022-12-20T23:35:36.572Z,138.65
2022-12-20T23:38:03.696Z,157.43
2022-12-20T23:40:30.510Z,166.38
2022-12-20T23:42:57.313Z,188.35
2022-12-20T23:45:24.158Z,103.53
2022-12-20T23:47:53.763Z,155.52
2022-12-20T23:50:20.675Z,169.60
2022-12-20T23:52:47.481Z,217.18
2022-12-20T23:55:14.421Z,109.10
2022-12-20T23:57:41.341Z,107.68
